createdAt,value
2018-04-17T00:00:18.127Z,11.57
2018-04-17T00:05:21.542Z,15.17
2018-04-17T00:10:24.212Z,13.37
2018-04-17T00:15:26.795Z,12.97
2018-04-17T00:20:29.601Z,13.90
2018-04-17T00:25:32.345Z,11.17
2018-04-17T00:30:35.020Z,13.30
2018-04-17T00:35:38.313Z,14.47
2018-04-17T00:40:40.929Z,11.60
2018-04-17T00:45:44.229Z,12.07
2018-04-17T00:50:46.830Z,13.23
2018-04-17T00:55:49.584Z,12.83
2018-04-17T01:00:52.100Z,11.07
2018-04-17T01:05:54.624Z,14.27
2018-04-17T01:10:57.294Z,13.10
2018-04-17T01:16:00.629Z,12.23
2018-04-17T01:21:03.234Z,12.90
2018-04-17T01:26:05.772Z,13.63
2018-04-17T01:31:08.285Z,13.43
2018-04-17T01:36:10.816Z,16.57
2018-04-17T01:41:13.385Z,12.47
2018-04-17T01:46:16.109Z,14.53
2018-04-17T01:51:19.195Z,13.60
2018-04-17T01:56:21.784Z,16.20
2018-04-17T02:01:24.320Z,12.63
2018-04-17T02:06:27.010Z,14.60
2018-04-17T02:11:29.706Z,15.53
2018-04-17T02:16:32.412Z,13.23
2018-04-17T02:21:34.968Z,13.40
2018-04-17T02:26:37.520Z,13.03
2018-04-17T02:31:40.057Z,14.17
2018-04-17T02:36:42.599Z,13.90
2018-04-17T02:41:45.527Z,15.10
2018-04-17T02:46:48.644Z,13.33
2018-04-17T02:51:51.198Z,13.60
2018-04-17T02:56:53.848Z,13.97
2018-04-17T03:01:56.411Z,14.77
2018-04-17T03:06:58.921Z,13.10
2018-04-17T03:12:01.546Z,12.07
2018-04-17T03:17:04.200Z,10.70
2018-04-17T03:22:07.161Z,12.90
2018-04-17T03:27:09.845Z,13.83
2018-04-17T03:32:12.377Z,11.63
2018-04-17T03:37:15.039Z,12.60
2018-04-17T03:42:18.369Z,11.77
2018-04-17T03:47:21.068Z,12.33
2018-04-17T03:52:23.694Z,13.93
2018-04-17T03:57:26.565Z,12.00
2018-04-17T04:02:29.120Z,10.53
2018-04-17T04:07:31.640Z,12.93
2018-04-17T04:12:34.178Z,13.37
2018-04-17T04:17:48.675Z,12.43
2018-04-17T04:23:02.982Z,10.83
2018-04-17T04:28:05.523Z,11.60
2018-04-17T04:33:08.276Z,11.00
2018-04-17T04:38:10.995Z,10.03
2018-04-17T04:43:13.638Z,10.33
2018-04-17T04:48:16.412Z,10.47
2018-04-17T04:53:18.901Z,9.90
2018-04-17T04:58:21.500Z,10.50
2018-04-17T05:03:24.083Z,9.00
2018-04-17T05:08:26.621Z,9.43
2018-04-17T05:13:29.284Z,11.63
2018-04-17T05:18:32.068Z,10.80
2018-04-17T05:23:34.592Z,9.90
2018-04-17T05:28:37.237Z,8.60
2018-04-17T05:33:39.912Z,8.93
2018-04-17T05:38:43.149Z,10.97
2018-04-17T05:43:45.714Z,10.20
2018-04-17T05:48:48.343Z,8.53
2018-04-17T05:53:51.038Z,10.40
2018-04-17T05:58:54.334Z,8.50
2018-04-17T06:03:56.842Z,9.90
2018-04-17T06:08:59.381Z,7.67
2018-04-17T06:14:02.099Z,8.83
2018-04-17T06:19:05.341Z,9.50
2018-04-17T06:24:07.952Z,8.40
2018-04-17T06:29:11.639Z,9.93
2018-04-17T06:34:14.168Z,8.50
2018-04-17T06:39:16.882Z,9.57
2018-04-17T06:44:19.781Z,8.77
2018-04-17T06:49:22.315Z,8.50
2018-04-17T06:54:25.141Z,10.20
2018-04-17T06:59:30.714Z,9.67
2018-04-17T07:04:33.291Z,10.07
2018-04-17T07:09:35.874Z,8.90
2018-04-17T07:14:39.312Z,9.17
2018-04-17T07:19:42.698Z,10.30
2018-04-17T07:24:45.249Z,10.57
2018-04-17T07:29:47.777Z,7.90
2018-04-17T07:34:50.808Z,8.10
2018-04-17T07:39:53.338Z,8.60
2018-04-17T07:44:55.993Z,10.10
2018-04-17T07:49:58.819Z,8.70
2018-04-17T07:55:02.149Z,7.97
2018-04-17T08:00:04.668Z,8.83
2018-04-17T08:05:08.045Z,8.00
2018-04-17T08:10:10.735Z,9.07
2018-04-17T08:15:13.258Z,8.20
2018-04-17T08:20:15.835Z,9.20
2018-04-17T08:25:18.320Z,9.23
2018-04-17T08:30:20.971Z,8.60
2018-04-17T08:35:23.553Z,8.30
2018-04-17T08:40:26.859Z,8.70
2018-04-17T08:45:29.513Z,10.70
2018-04-17T08:50:32.093Z,9.37
2018-04-17T08:55:35.671Z,7.83
2018-04-17T09:00:38.215Z,11.37
2018-04-17T09:05:40.789Z,8.60
2018-04-17T09:10:43.313Z,8.03
2018-04-17T09:15:46.021Z,8.47
2018-04-17T09:20:48.565Z,9.43
2018-04-17T09:25:51.176Z,8.87
2018-04-17T09:30:53.721Z,8.97
2018-04-17T09:35:56.304Z,9.27
2018-04-17T09:40:59.018Z,8.37
2018-04-17T09:46:01.588Z,7.87
2018-04-17T09:51:04.986Z,8.20
2018-04-17T09:56:07.524Z,7.67
2018-04-17T10:01:27.696Z,7.70
2018-04-17T10:06:30.414Z,8.13
2018-04-17T10:11:33.256Z,9.00
2018-04-17T10:16:35.961Z,9.17
2018-04-17T10:21:38.482Z,8.93
2018-04-17T10:26:40.992Z,6.23
2018-04-17T10:31:44.268Z,6.90
2018-04-17T10:36:47.010Z,7.60
2018-04-17T10:41:49.653Z,7.50
2018-04-17T10:46:52.165Z,6.83
2018-04-17T10:51:54.896Z,6.20
2018-04-17T10:56:57.430Z,7.00
2018-04-17T11:01:59.943Z,8.73
2018-04-17T11:07:02.523Z,7.77
2018-04-17T11:12:05.072Z,7.63
2018-04-17T11:17:08.401Z,9.73
2018-04-17T11:22:10.971Z,8.87
2018-04-17T11:27:13.589Z,6.60
2018-04-17T11:32:16.110Z,6.70
2018-04-17T11:37:18.808Z,7.67
2018-04-17T11:42:21.721Z,5.80
2018-04-17T11:47:24.273Z,5.70
2018-04-17T11:52:26.909Z,5.90
2018-04-17T11:57:29.490Z,7.53
2018-04-17T12:02:32.121Z,9.57
2018-04-17T12:07:35.261Z,5.63
2018-04-17T12:12:37.798Z,6.43
2018-04-17T12:17:40.464Z,8.67
2018-04-17T12:22:42.963Z,6.30
2018-04-17T12:27:45.616Z,6.10
2018-04-17T12:32:48.594Z,5.87
2018-04-17T12:37:51.358Z,6.40
2018-04-17T12:42:53.991Z,6.37
2018-04-17T12:47:56.893Z,7.47
2018-04-17T12:52:59.553Z,4.70
2018-04-17T12:58:02.071Z,6.30
2018-04-17T13:03:04.635Z,6.77
2018-04-17T13:08:07.316Z,5.80
2018-04-17T13:13:09.889Z,4.60
2018-04-17T13:18:12.433Z,7.30
2018-04-17T13:23:15.009Z,7.57
2018-04-17T13:28:18.573Z,5.10
2018-04-17T13:33:21.220Z,4.80
2018-04-17T13:38:23.835Z,6.30
2018-04-17T13:43:26.920Z,8.07
2018-04-17T13:48:30.353Z,5.43
2018-04-17T13:53:32.885Z,5.23
2018-04-17T13:58:36.229Z,5.30
2018-04-17T14:03:38.740Z,5.53
2018-04-17T14:08:42.087Z,5.00
2018-04-17T14:13:44.637Z,5.00
2018-04-17T14:18:47.242Z,6.03
2018-04-17T14:23:50.543Z,5.93
2018-04-17T14:28:53.824Z,5.00
2018-04-17T14:33:56.411Z,3.87
2018-04-17T14:38:59.086Z,5.00
2018-04-17T14:44:01.759Z,5.17
2018-04-17T14:49:04.411Z,5.80
2018-04-17T14:54:07.061Z,6.73
2018-04-17T14:59:09.627Z,4.20
2018-04-17T15:04:12.563Z,6.70
2018-04-17T15:09:15.604Z,5.67
2018-04-17T15:14:18.826Z,5.07
2018-04-17T15:19:21.496Z,3.90
2018-04-17T15:24:24.540Z,4.87
2018-04-17T15:29:27.068Z,4.13
2018-04-17T15:34:29.704Z,4.03
2018-04-17T15:39:33.372Z,5.20
2018-04-17T15:44:36.783Z,4.30
2018-04-17T15:49:40.059Z,5.00
2018-04-17T15:54:42.601Z,5.03
2018-04-17T15:59:45.907Z,5.30
2018-04-17T16:04:48.513Z,5.07
2018-04-17T16:09:51.887Z,5.33
2018-04-17T16:14:54.528Z,3.77
2018-04-17T16:19:57.690Z,4.90
2018-04-17T16:25:01.220Z,5.10
2018-04-17T16:30:03.742Z,4.90
2018-04-17T16:35:06.997Z,6.13
2018-04-17T16:40:09.542Z,5.77
2018-04-17T16:45:13.084Z,4.97
2018-04-17T16:50:15.605Z,3.97
2018-04-17T16:55:18.179Z,4.27
2018-04-17T17:00:21.464Z,4.23
2018-04-17T17:05:24.793Z,4.00
2018-04-17T17:10:27.565Z,3.00
2018-04-17T17:15:30.884Z,4.50
2018-04-17T17:20:33.389Z,4.30
2018-04-17T17:25:35.881Z,6.23
2018-04-17T17:30:38.412Z,3.20
2018-04-17T17:35:40.984Z,3.87
2018-04-17T17:40:43.504Z,3.77
2018-04-17T17:45:46.855Z,4.43
2018-04-17T17:50:50.153Z,3.90
2018-04-17T17:55:53.436Z,6.50
2018-04-17T18:00:56.277Z,2.77
2018-04-17T18:05:59.589Z,5.00
2018-04-17T18:11:02.279Z,4.17
2018-04-17T18:16:04.800Z,3.20
2018-04-17T18:21:07.422Z,3.60
2018-04-17T18:26:09.953Z,3.83
2018-04-17T18:31:12.546Z,5.87
2018-04-17T18:36:15.078Z,3.40
2018-04-17T18:41:17.869Z,4.90
2018-04-17T18:46:20.424Z,3.77
2018-04-17T18:51:23.127Z,6.57
2018-04-17T18:56:25.684Z,3.90
2018-04-17T19:01:28.215Z,6.50
2018-04-17T19:06:30.786Z,4.10
2018-04-17T19:11:33.416Z,4.50
2018-04-17T19:16:35.992Z,4.93
2018-04-17T19:21:38.583Z,5.40
2018-04-17T19:26:41.887Z,4.83
2018-04-17T19:31:44.407Z,3.80
2018-04-17T19:36:47.025Z,4.20
2018-04-17T19:41:49.637Z,3.80
2018-04-17T19:46:52.252Z,3.70
2018-04-17T19:51:54.765Z,4.40
2018-04-17T19:56:57.328Z,4.40
2018-04-17T20:02:00.077Z,4.03
2018-04-17T20:07:02.741Z,4.70
2018-04-17T20:12:05.487Z,6.13
2018-04-17T20:17:08.280Z,4.80
2018-04-17T20:22:10.998Z,3.43
2018-04-17T20:27:13.531Z,4.90
2018-04-17T20:32:16.084Z,6.73
2018-04-17T20:37:19.421Z,4.70
2018-04-17T20:42:21.967Z,4.93
2018-04-17T20:47:24.573Z,4.20
2018-04-17T20:52:27.092Z,4.20
2018-04-17T20:57:30.495Z,4.40
2018-04-17T21:02:33.018Z,5.97
2018-04-17T21:07:35.559Z,4.13
2018-04-17T21:12:38.082Z,4.23
2018-04-17T21:17:41.618Z,6.90
2018-04-17T21:22:44.165Z,6.13
2018-04-17T21:27:46.687Z,4.40
2018-04-17T21:32:49.970Z,6.37
2018-04-17T21:37:52.612Z,5.10
2018-04-17T21:42:56.102Z,4.60
2018-04-17T21:47:58.643Z,6.63
2018-04-17T21:53:01.506Z,5.13
2018-04-17T21:58:05.403Z,6.77
2018-04-17T22:03:07.913Z,5.70
2018-04-17T22:08:10.474Z,5.13
2018-04-17T22:13:13.088Z,6.90
2018-04-17T22:18:15.790Z,3.93
2018-04-17T22:23:20.168Z,4.70
2018-04-17T22:28:22.687Z,4.40
2018-04-17T22:33:25.265Z,5.73
2018-04-17T22:38:28.038Z,4.90
2018-04-17T22:43:31.333Z,4.67
2018-04-17T22:48:33.920Z,7.17
2018-04-17T22:53:36.459Z,5.53
2018-04-17T22:58:39.013Z,5.10
2018-04-17T23:03:41.568Z,6.60
2018-04-17T23:08:44.067Z,5.93
2018-04-17T23:13:46.595Z,5.47
2018-04-17T23:18:49.147Z,4.53
2018-04-17T23:23:52.167Z,6.93
2018-04-17T23:28:54.874Z,5.57
2018-04-17T23:33:57.902Z,7.17
2018-04-17T23:39:01.210Z,5.20
2018-04-17T23:44:03.735Z,5.20
2018-04-17T23:49:07.148Z,4.83
2018-04-17T23:54:11.016Z,6.70
2018-04-17T23:59:14.259Z,6.67
